»·PEaware :: N6594J KAMA-KAMA

N6594J :: KAMA-KAMA

FLIGHT INFORMATION

Flight Status: Arrived
Operator: Privately registered:
United States
More flights under this callsign
Pilot: Hub City Aviation Academy (12996)
Aircraft: PIPER PA-28 CHEROKEE ARCHER
(P28A)
More flights by this aircraft type
Origin: KAMA Amarillo Intl
United States
Destination: KAMA Amarillo Intl
United States
More flights between these airports :: More routes between these airports
Route: +PNH
File this flight plan on PilotEdge
Remarks: multiple approaches
Altitude:
(Current/Filed)
6,000ft
Speed:
(Current/Filed)
110kts
Departed: 28-Jul-17 12:10 PM
Arrived: 28-Jul-17 01:14 PM
Distance/Time
Traveled:
1nm/1:04
Distance/Time
To Go:
Arrived

Flight Plot

Page will automatically refresh every two minutes.

Flight plan parsing failed; only flown route is shown


Map Options




Map Legend


Flown Route
Filed Route
Departure Airport
Arrival Airport
Navaid (VOR, NDB)
Fix

Horizontal Profiles

Position Reports

Time Latitude Longitude Heading Altitude Ground
Speed
28-Jul-17 12:01 35.218537 -101.707956 326 3610ft 0kts
28-Jul-17 12:02 35.218537 -101.707956 326 3610ft 0kts
28-Jul-17 12:03 35.218537 -101.707957 326 3610ft 0kts
28-Jul-17 12:04 35.218538 -101.707957 326 3610ft 0kts
28-Jul-17 12:05 35.218538 -101.707957 326 3610ft 0kts
28-Jul-17 12:06 35.218538 -101.707957 326 3610ft 0kts
28-Jul-17 12:07 35.219186 -101.709122 283 3610ft 14kts
28-Jul-17 12:08 35.219584 -101.710674 36 3610ft 15kts
28-Jul-17 12:09 35.224143 -101.704919 45 3610ft 21kts
28-Jul-17 12:10 35.228556 -101.699315 43 3610ft 23kts
28-Jul-17 12:11 35.229988 -101.699559 321 3610ft 0kts
28-Jul-17 12:12 35.230381 -101.699945 315 3610ft 8kts
28-Jul-17 12:13 35.222468 -101.710556 225 3758ft 93kts
28-Jul-17 12:14 35.203627 -101.738417 253 4801ft 89kts
28-Jul-17 12:15 35.189943 -101.760301 230 5386ft 100kts
28-Jul-17 12:16 35.176977 -101.789473 286 5929ft 103kts
28-Jul-17 12:17 35.200747 -101.812221 328 5993ft 119kts
28-Jul-17 12:18 35.215271 -101.844472 249 5990ft 126kts
28-Jul-17 12:19 35.196442 -101.881022 250 5986ft 127kts
28-Jul-17 12:20 35.186320 -101.921814 280 5976ft 123kts
28-Jul-17 12:21 35.212222 -101.943434 343 5988ft 119kts
28-Jul-17 12:22 35.245092 -101.942368 9 5981ft 119kts
28-Jul-17 12:23 35.276136 -101.928041 21 5982ft 119kts
28-Jul-17 12:24 35.305603 -101.909085 29 5982ft 120kts
28-Jul-17 12:25 35.333676 -101.886897 34 5983ft 120kts
28-Jul-17 12:26 35.358257 -101.859208 46 5983ft 121kts
28-Jul-17 12:27 35.378757 -101.826209 55 5983ft 122kts
28-Jul-17 12:28 35.394253 -101.789263 67 5986ft 123kts
28-Jul-17 12:29 35.402156 -101.748316 78 5984ft 124kts
28-Jul-17 12:30 35.408008 -101.706604 76 5980ft 124kts
28-Jul-17 12:31 35.405631 -101.660793 102 5404ft 144kts
28-Jul-17 12:32 35.396841 -101.613531 113 4997ft 138kts
28-Jul-17 12:33 35.378618 -101.573718 121 4980ft 132kts
28-Jul-17 12:34 35.346215 -101.569419 211 5006ft 132kts
28-Jul-17 12:35 35.317909 -101.598095 231 4984ft 132kts
28-Jul-17 12:36 35.292580 -101.630770 225 4981ft 132kts
28-Jul-17 12:37 35.263573 -101.663761 229 4419ft 149kts
28-Jul-17 12:38 35.233807 -101.697573 218 3898ft 150kts
28-Jul-17 12:39 35.205304 -101.724817 192 4317ft 121kts
28-Jul-17 12:40 35.179519 -101.704377 140 4900ft 116kts
28-Jul-17 12:41 35.146664 -101.695663 176 5100ft 131kts
28-Jul-17 12:42 35.109732 -101.700869 185 5083ft 134kts
28-Jul-17 12:43 35.072502 -101.704995 183 5082ft 134kts
28-Jul-17 12:44 35.035266 -101.705928 171 5077ft 134kts
28-Jul-17 12:45 35.001776 -101.687484 178 5081ft 134kts
28-Jul-17 12:46 34.984517 -101.718481 292 5093ft 125kts
28-Jul-17 12:47 35.014316 -101.730132 2 5088ft 122kts
28-Jul-17 12:48 35.034857 -101.704160 97 5094ft 128kts
28-Jul-17 12:49 35.022440 -101.664063 105 5283ft 123kts
28-Jul-17 12:50 35.008410 -101.625020 111 5388ft 129kts
28-Jul-17 12:51 35.007714 -101.586498 37 5398ft 122kts
28-Jul-17 12:52 35.033094 -101.558556 42 5383ft 123kts
28-Jul-17 12:53 35.057469 -101.528780 40 5370ft 123kts
28-Jul-17 12:54 35.088116 -101.538569 311 5392ft 128kts
28-Jul-17 12:55 35.112640 -101.568259 315 5381ft 123kts
28-Jul-17 12:56 35.137957 -101.596378 313 5387ft 123kts
28-Jul-17 12:57 35.162601 -101.626070 318 5201ft 134kts
28-Jul-17 12:58 35.186912 -101.650912 317 4244ft 99kts
28-Jul-17 12:59 35.206406 -101.672888 325 3872ft 89kts
28-Jul-17 13:00 35.221874 -101.688186 317 3610ft 50kts
28-Jul-17 13:01 35.237177 -101.707651 317 4316ft 90kts
28-Jul-17 13:02 35.256972 -101.731266 317 4914ft 104kts
28-Jul-17 13:03 35.278107 -101.756616 317 5420ft 106kts
28-Jul-17 13:04 35.299264 -101.782138 317 5850ft 109kts
28-Jul-17 13:05 35.300030 -101.814438 211 5999ft 127kts
28-Jul-17 13:06 35.268120 -101.835333 204 5983ft 130kts
28-Jul-17 13:07 35.235729 -101.855144 205 5981ft 130kts
28-Jul-17 13:08 35.202138 -101.875286 205 5717ft 141kts
28-Jul-17 13:09 35.166615 -101.897140 210 5354ft 140kts
28-Jul-17 13:10 35.132113 -101.905762 143 5288ft 132kts
28-Jul-17 13:11 35.105367 -101.874949 115 5275ft 131kts
28-Jul-17 13:12 35.119536 -101.841892 30 5291ft 123kts
28-Jul-17 13:13 35.144021 -101.812396 49 5283ft 124kts
28-Jul-17 13:14 35.162438 -101.785748 43 5116ft 90kts
28-Jul-17 13:15 35.181056 -101.763279 41 4253ft 107kts
28-Jul-17 13:16 35.200798 -101.738117 43 3850ft 81kts
28-Jul-17 13:17 35.209667 -101.726948 48 3610ft 23kts

Navigation Log

Ident Type
Flight plan parsing failed, navigation log unavailable